Terminal Aerodrome Forecast
Issued by NWS

Home | Current Version | Previous Version | Text Only | Print | Product List | Glossary On
Versions: 1 2 3 4 5 6 7 8 9 10 11 12 13 14 15 16 17 18
000
FTUS43 KILX 211735
TAFDEC
TAF
KDEC 211735Z 2118/2218 18010KT 3SM BR OVC002
     FM212000 17008KT P6SM OVC030
     FM212300 16010KT 5SM BR OVC015
     FM220600 16012G20KT 5SM -SHRA OVC003
     FM220900 17014G22KT 2SM -SHRA VCTS OVC003CB
     FM221200 17016G26KT 1SM -SHRA OVC003
     FM221600 18017G27KT P6SM -SHRA BKN010=

USA.gov is the U.S. government's official web portal to all federal, state and local government web resources and services.